Time;durP1;ratioP1;P1;durP2;ratioP2;P2;SDS_P1;SDS_P2;PMS_P1;PMS_P2;Temp;Humidity;BMP_temperature;BMP_pressure;BME280_temperature;BME280_humidity;BME280_pressure;Samples;Min_cycle;Max_cycle;Signal;HPM_P1;HPM_P2
2023/06/29 00:00:01;;;;;;;5.53;3.03;;;;;;;17.81;56.08;99166.81;4502098;31;33559;-86
2023/06/29 00:02:31;;;;;;;8.85;2.25;;;;;;;17.75;56.30;99165.13;4497413;31;34346;-82
2023/06/29 00:04:59;;;;;;;6.50;2.50;;;;;;;17.77;56.75;99167.75;4498289;31;34344;-82
2023/06/29 00:07:27;;;;;;;5.72;2.17;;;;;;;17.73;57.00;99169.53;4490700;32;33222;-83
2023/06/29 00:09:54;;;;;;;5.43;2.33;;;;;;;17.69;57.14;99169.56;4487328;32;34909;-82
2023/06/29 00:12:22;;;;;;;8.27;2.30;;;;;;;17.70;57.11;99166.94;4484273;32;35087;-80
2023/06/29 00:14:50;;;;;;;6.43;2.60;;;;;;;17.91;56.63;99170.13;4497288;31;33477;-82
2023/06/29 00:17:17;;;;;;;5.90;2.30;;;;;;;17.89;56.70;99164.91;4501895;31;33252;-81
2023/06/29 00:19:47;;;;;;;4.65;2.12;;;;;;;17.84;56.71;99172.00;4503071;31;33757;-84
2023/06/29 00:22:16;;;;;;;6.47;2.72;;;;;;;17.71;57.09;99170.44;4501895;31;34746;-89
2023/06/29 00:24:43;;;;;;;5.80;2.70;;;;;;;17.67;57.18;99166.12;4490305;31;34657;-82
2023/06/29 00:27:12;;;;;;;5.43;2.65;;;;;;;17.75;57.03;99167.75;4489471;32;33726;-82
2023/06/29 00:29:41;;;;;;;6.05;2.20;;;;;;;17.93;56.61;99161.34;4488700;32;33522;-82
2023/06/29 00:32:10;;;;;;;5.53;2.28;;;;;;;17.77;56.73;99167.75;4485726;32;34130;-83
2023/06/29 00:34:37;;;;;;;5.50;2.33;;;;;;;17.71;56.66;99162.56;4496501;31;34213;-82
2023/06/29 00:37:05;;;;;;;6.00;2.22;;;;;;;17.75;56.86;99164.28;4501879;31;33408;-82
2023/06/29 00:39:33;;;;;;;5.47;2.22;;;;;;;17.59;57.35;99160.16;4506716;31;34231;-82
2023/06/29 00:42:02;;;;;;;4.50;2.03;;;;;;;17.73;57.08;99164.28;4502657;31;33698;-82
2023/06/29 00:44:29;;;;;;;6.57;2.80;;;;;;;17.62;57.22;99168.84;4493009;31;34789;-82
2023/06/29 00:46:57;;;;;;;5.85;2.25;;;;;;;17.45;57.60;99163.84;4485931;32;34192;-82
2023/06/29 00:49:25;;;;;;;6.75;2.58;;;;;;;17.61;57.43;99167.06;4486490;32;34675;-82
2023/06/29 00:51:53;;;;;;;6.68;2.37;;;;;;;17.55;57.73;99155.84;4486134;31;33477;-81
2023/06/29 00:54:21;;;;;;;4.97;2.10;;;;;;;17.43;58.08;99152.53;4484697;32;33862;-81
2023/06/29 00:56:49;;;;;;;4.32;2.00;;;;;;;17.55;57.80;99159.31;4484514;32;34490;-82
2023/06/29 00:59:16;;;;;;;6.55;2.33;;;;;;;17.38;58.10;99153.47;4486534;32;34044;-82
2023/06/29 01:01:45;;;;;;;5.25;2.55;;;;;;;17.36;58.33;99166.59;4495098;31;34096;-82
2023/06/29 01:04:17;;;;;;;4.65;2.03;;;;;;;17.34;58.39;99159.66;4491065;31;32897;-81
2023/06/29 01:06:57;;;;;;;5.95;2.50;;;;;;;17.14;59.14;99154.69;4507772;31;33480;-82
2023/06/29 01:09:25;;;;;;;5.55;2.45;;;;;;;17.34;58.66;99152.63;4499516;31;33822;-82
2023/06/29 01:11:52;;;;;;;4.95;2.10;;;;;;;17.37;58.42;99149.97;4500314;31;35041;-82
2023/06/29 01:14:21;;;;;;;5.95;2.15;;;;;;;17.35;58.43;99151.78;4504531;31;34656;-82
2023/06/29 01:16:49;;;;;;;7.10;2.50;;;;;;;17.33;58.44;99144.81;4501246;31;33237;-82
2023/06/29 01:19:25;;;;;;;6.20;2.40;;;;;;;17.46;57.98;99147.25;4487809;31;33605;-82
2023/06/29 01:22:01;;;;;;;;;;;;;;;17.29;58.38;99144.00;4481992;32;34081;-82
2023/06/29 01:24:37;;;;;;;7.30;2.62;;;;;;;17.55;57.84;99145.34;4485920;32;34372;-82
2023/06/29 01:27:08;;;;;;;8.13;2.70;;;;;;;17.35;58.60;99143.91;4485652;32;33551;-82
2023/06/29 01:29:36;;;;;;;5.10;2.67;;;;;;;17.39;58.17;99148.22;4485961;31;34579;-82
2023/06/29 01:32:07;;;;;;;6.87;2.17;;;;;;;17.21;58.91;99151.97;4486202;32;33984;-82
2023/06/29 01:34:36;;;;;;;6.05;2.58;;;;;;;17.26;58.60;99151.91;4485998;32;34875;-81
2023/06/29 01:37:17;;;;;;;4.78;2.30;;;;;;;17.18;59.08;99151.16;4485964;32;34104;-82
2023/06/29 01:40:00;;;;;;;5.55;2.45;;;;;;;17.33;58.57;99147.44;4498078;31;33886;-82
2023/06/29 01:42:32;;;;;;;5.07;2.30;;;;;;;17.31;58.68;99149.19;4501535;31;34161;-82
2023/06/29 01:45:01;;;;;;;5.32;2.58;;;;;;;17.29;58.77;99145.75;4499828;31;34985;-82
2023/06/29 01:47:28;;;;;;;6.15;2.80;;;;;;;17.16;59.04;99151.19;4499837;31;34146;-82
2023/06/29 01:49:56;;;;;;;4.45;2.53;;;;;;;16.70;60.23;99140.37;4488529;31;34776;-82
2023/06/29 01:52:24;;;;;;;6.72;2.90;;;;;;;16.93;59.94;99142.75;4485751;32;34171;-83
2023/06/29 01:54:53;;;;;;;5.18;2.90;;;;;;;17.10;59.58;99147.78;4486162;32;34480;-82
2023/06/29 01:57:22;;;;;;;5.25;2.95;;;;;;;17.11;59.50;99139.87;4487336;32;33596;-82
2023/06/29 01:59:52;;;;;;;6.45;2.62;;;;;;;16.82;60.20;99142.91;4498016;31;33534;-82
2023/06/29 02:02:19;;;;;;;5.85;2.85;;;;;;;17.06;59.69;99135.59;4501083;31;33902;-82
2023/06/29 02:04:48;;;;;;;7.22;2.78;;;;;;;17.18;59.29;99140.66;4501151;31;33865;-82
2023/06/29 02:07:15;;;;;;;6.43;2.95;;;;;;;17.09;59.59;99140.81;4501392;31;33276;-82
2023/06/29 02:09:43;;;;;;;10.85;3.05;;;;;;;17.24;59.04;99145.81;4496044;31;34842;-81
2023/06/29 02:12:11;;;;;;;5.90;2.90;;;;;;;17.00;59.67;99142.63;4492836;31;33670;-83
2023/06/29 02:14:39;;;;;;;7.62;3.05;;;;;;;17.26;59.03;99144.91;4499222;31;34648;-82
2023/06/29 02:17:06;;;;;;;5.32;3.05;;;;;;;17.11;59.78;99134.63;4500976;31;33573;-82
2023/06/29 02:19:34;;;;;;;7.97;3.30;;;;;;;17.07;59.84;99137.31;4500354;31;34745;-82
2023/06/29 02:22:02;;;;;;;7.22;3.37;;;;;;;17.11;59.88;99141.63;4501319;31;34075;-82
2023/06/29 02:24:30;;;;;;;7.32;2.80;;;;;;;17.22;59.65;99142.34;4501647;31;33081;-81
2023/06/29 02:26:58;;;;;;;7.68;2.80;;;;;;;17.24;59.71;99138.81;4501845;31;33417;-82
2023/06/29 02:29:26;;;;;;;6.25;3.12;;;;;;;17.19;60.13;99145.00;4495588;31;34194;-83
2023/06/29 02:31:53;;;;;;;10.07;3.87;;;;;;;17.10;60.61;99142.53;4486352;32;34957;-82
2023/06/29 02:34:22;;;;;;;8.52;3.45;;;;;;;17.17;60.75;99134.56;4484228;32;34547;-82
2023/06/29 02:36:49;;;;;;;8.93;4.12;;;;;;;17.09;60.28;99135.56;4486564;32;33574;-82
2023/06/29 02:39:17;;;;;;;6.65;3.70;;;;;;;16.64;61.65;99140.47;4491324;31;33634;-82
2023/06/29 02:41:45;;;;;;;7.85;3.75;;;;;;;16.97;60.49;99133.97;4486916;32;33957;-82
2023/06/29 02:44:12;;;;;;;8.10;3.50;;;;;;;16.97;60.72;99141.81;4486347;32;33671;-81
2023/06/29 02:46:40;;;;;;;6.95;3.78;;;;;;;17.18;59.47;99135.44;4484472;32;32656;-83
2023/06/29 02:49:08;;;;;;;7.22;3.85;;;;;;;16.87;61.00;99141.09;4494530;31;34766;-82
2023/06/29 02:51:35;;;;;;;7.47;3.80;;;;;;;16.58;61.89;99143.16;4500105;31;34185;-81
2023/06/29 02:54:03;;;;;;;9.32;3.95;;;;;;;16.90;60.62;99142.81;4501088;31;33900;-91
2023/06/29 02:56:31;;;;;;;7.68;3.60;;;;;;;17.06;60.42;99144.31;4501187;31;34153;-82
2023/06/29 02:58:59;;;;;;;10.45;4.22;;;;;;;16.96;60.87;99142.72;4494873;31;34074;-93
2023/06/29 03:01:27;;;;;;;6.35;3.72;;;;;;;16.99;60.51;99150.53;4484855;32;33876;-92
2023/06/29 03:03:58;;;;;;;5.55;3.15;;;;;;;17.08;60.73;99153.00;4486745;32;33162;-91
2023/06/29 03:06:26;;;;;;;5.85;3.28;;;;;;;16.91;60.96;99153.25;4484495;32;34105;-82
2023/06/29 03:08:56;;;;;;;7.40;3.22;;;;;;;17.03;60.44;99160.94;4491968;31;34152;-82
2023/06/29 03:11:23;;;;;;;6.60;3.33;;;;;;;16.75;61.27;99163.06;4492123;31;34214;-82
2023/06/29 03:13:51;;;;;;;6.75;3.25;;;;;;;16.86;61.01;99160.31;4484121;32;33620;-82
2023/06/29 03:16:18;;;;;;;8.60;3.35;;;;;;;17.17;59.49;99154.66;4485757;31;33606;-81
2023/06/29 03:18:46;;;;;;;7.97;3.10;;;;;;;16.91;60.44;99157.63;4485104;31;33955;-82
2023/06/29 03:21:16;;;;;;;5.60;2.92;;;;;;;16.95;60.03;99152.31;4496699;31;34055;-84
2023/06/29 03:23:46;;;;;;;8.18;2.80;;;;;;;17.43;58.08;99151.66;4501421;31;33697;-82
2023/06/29 03:26:13;;;;;;;6.95;3.12;;;;;;;17.30;58.87;99150.97;4501138;31;33759;-82
2023/06/29 03:28:41;;;;;;;5.95;3.37;;;;;;;17.35;58.68;99145.63;4488001;31;34759;-82
2023/06/29 03:31:08;;;;;;;6.53;3.25;;;;;;;17.36;58.45;99147.41;4483740;32;34232;-81
2023/06/29 03:33:36;;;;;;;6.60;2.87;;;;;;;17.35;58.10;99145.63;4483608;32;33902;-96
2023/06/29 03:36:05;;;;;;;6.68;2.60;;;;;;;17.27;58.41;99157.13;4483322;32;34292;-93
2023/06/29 03:38:32;;;;;;;8.90;3.33;;;;;;;17.31;58.22;99152.69;4494557;31;34096;-82
2023/06/29 03:41:00;;;;;;;6.90;3.00;;;;;;;17.34;58.25;99157.03;4498655;31;34198;-82
2023/06/29 03:43:27;;;;;;;5.20;2.40;;;;;;;17.30;58.62;99158.81;4497611;31;33860;-90
2023/06/29 03:45:58;;;;;;;7.80;2.65;;;;;;;17.59;57.19;99149.66;4483995;31;33500;-82
2023/06/29 03:48:28;;;;;;;5.97;2.65;;;;;;;17.36;58.42;99150.88;4495797;31;34001;-82
2023/06/29 03:50:57;;;;;;;6.53;2.72;;;;;;;17.47;57.85;99151.59;4498283;31;34852;-85
2023/06/29 03:53:24;;;;;;;5.30;2.33;;;;;;;17.75;56.64;99148.53;4495845;31;33904;-81
2023/06/29 03:55:52;;;;;;;5.85;2.62;;;;;;;18.10;55.28;99141.81;4497005;31;33829;-92
2023/06/29 03:58:19;;;;;;;4.10;2.12;;;;;;;17.98;55.36;99148.16;4497553;31;34630;-82
2023/06/29 04:00:47;;;;;;;5.00;2.37;;;;;;;18.17;54.59;99144.31;4497381;31;35011;-81
2023/06/29 04:03:14;;;;;;;5.68;2.53;;;;;;;18.36;54.18;99149.22;4491037;31;33580;-81
2023/06/29 04:05:42;;;;;;;6.57;2.17;;;;;;;18.50;54.23;99156.84;4482823;32;33484;-92
2023/06/29 04:08:10;;;;;;;6.22;2.60;;;;;;;18.59;53.67;99152.25;4482962;32;34023;-82
2023/06/29 04:10:38;;;;;;;5.47;2.67;;;;;;;18.57;53.98;99161.94;4482942;32;33847;-81
2023/06/29 04:13:05;;;;;;;4.47;2.40;;;;;;;19.03;52.31;99149.63;4487693;31;34173;-82
2023/06/29 04:15:33;;;;;;;5.95;2.28;;;;;;;18.89;52.62;99158.66;4498404;31;33386;-82
2023/06/29 04:18:01;;;;;;;5.60;2.10;;;;;;;19.16;51.90;99149.31;4498406;31;35202;-82
2023/06/29 04:20:29;;;;;;;5.20;2.37;;;;;;;19.33;51.16;99143.69;4496950;31;33961;-82
2023/06/29 04:22:56;;;;;;;7.00;2.42;;;;;;;19.00;52.19;99153.19;4494169;31;34025;-82
2023/06/29 04:25:24;;;;;;;4.85;1.92;;;;;;;19.12;51.55;99146.78;4485094;31;33542;-82
2023/06/29 04:27:51;;;;;;;5.03;2.00;;;;;;;19.72;50.41;99137.53;4482422;32;33683;-82
2023/06/29 04:30:19;;;;;;;5.25;2.28;;;;;;;19.99;49.35;99125.44;4481291;32;32766;-82
2023/06/29 04:32:47;;;;;;;5.15;2.15;;;;;;;19.58;49.89;99132.56;4483906;31;33732;-82
2023/06/29 04:35:15;;;;;;;7.40;2.20;;;;;;;19.39;50.42;99130.38;4492550;31;33091;-82
2023/06/29 04:37:42;;;;;;;5.65;1.98;;;;;;;19.65;49.12;99134.19;4493857;31;34539;-83
2023/06/29 04:40:12;;;;;;;5.57;2.08;;;;;;;20.41;47.88;99142.72;4498503;31;34749;-82
2023/06/29 04:42:47;;;;;;;4.78;1.73;;;;;;;19.72;49.02;99141.03;4498781;31;34479;-84
2023/06/29 04:45:18;;;;;;;5.60;2.17;;;;;;;20.58;47.07;99138.81;4482260;32;33228;-82
2023/06/29 04:47:47;;;;;;;5.62;2.22;;;;;;;20.81;46.88;99139.00;4482413;32;34842;-81
2023/06/29 04:50:15;;;;;;;7.43;1.90;;;;;;;20.78;46.37;99136.44;4481061;32;33837;-82
2023/06/29 04:52:43;;;;;;;9.45;2.30;;;;;;;20.63;47.00;99148.28;4495796;31;33607;-82
2023/06/29 04:55:11;;;;;;;7.57;1.80;;;;;;;21.52;45.29;99134.25;4485817;31;34170;-83
2023/06/29 04:57:38;;;;;;;6.30;2.08;;;;;;;21.68;44.55;99129.31;4484303;32;34868;-82
2023/06/29 05:00:11;;;;;;;7.85;2.15;;;;;;;20.52;46.48;99136.31;4486238;32;35238;-82
2023/06/29 05:02:38;;;;;;;6.90;2.33;;;;;;;20.54;46.44;99134.53;4487703;32;34962;-96
2023/06/29 05:05:07;;;;;;;8.20;1.65;;;;;;;21.02;46.04;99136.62;4487498;31;33691;-82
2023/06/29 05:07:35;;;;;;;5.05;2.12;;;;;;;21.55;45.00;99139.37;4501044;31;33785;-83
2023/06/29 05:10:03;;;;;;;6.18;2.03;;;;;;;21.93;43.92;99126.69;4493354;31;34414;-82
2023/06/29 05:12:30;;;;;;;5.53;2.17;;;;;;;22.31;42.91;99128.91;4498298;31;33785;-83
2023/06/29 05:14:57;;;;;;;7.50;2.28;;;;;;;22.16;42.63;99123.28;4500498;31;34171;-82
2023/06/29 05:17:25;;;;;;;8.00;2.20;;;;;;;21.23;44.58;99127.22;4487248;31;34018;-82
2023/06/29 05:19:53;;;;;;;6.43;2.08;;;;;;;21.56;44.85;99123.53;4490863;31;33556;-82
2023/06/29 05:22:20;;;;;;;5.45;2.15;;;;;;;21.90;44.16;99118.91;4495565;31;33739;-82
2023/06/29 05:24:48;;;;;;;6.18;2.50;;;;;;;21.75;43.94;99121.16;4490454;32;33905;-82
2023/06/29 05:27:15;;;;;;;7.22;2.20;;;;;;;21.25;45.49;99115.72;4489920;32;34067;-83
2023/06/29 05:29:43;;;;;;;6.28;2.67;;;;;;;21.19;46.13;99125.56;4486753;32;33724;-94
2023/06/29 05:32:10;;;;;;;7.93;2.50;;;;;;;21.57;45.50;99117.31;4493149;31;34573;-96
2023/06/29 05:34:38;;;;;;;6.55;2.53;;;;;;;21.60;45.44;99121.66;4501683;31;33046;-87
2023/06/29 05:37:05;;;;;;;11.80;2.20;;;;;;;21.57;46.01;99124.37;4500528;31;33583;-94
2023/06/29 05:39:33;;;;;;;7.50;2.20;;;;;;;21.80;45.06;99124.47;4503665;31;34957;-83
2023/06/29 05:42:01;;;;;;;7.70;2.40;;;;;;;21.70;45.31;99128.34;4483175;32;33906;-83
2023/06/29 05:44:28;;;;;;;3.85;1.85;;;;;;;21.61;45.70;99123.38;4486913;32;33976;-82
2023/06/29 05:46:57;;;;;;;7.12;2.45;;;;;;;21.26;46.34;99133.25;4482891;32;33990;-82
2023/06/29 05:49:25;;;;;;;8.07;2.62;;;;;;;20.98;47.57;99140.25;4494313;31;34169;-82
2023/06/29 05:51:52;;;;;;;6.78;2.37;;;;;;;21.44;48.22;99130.94;4498773;31;34162;-83
2023/06/29 05:54:20;;;;;;;6.12;2.62;;;;;;;21.29;47.91;99127.00;4500156;31;33798;-84
2023/06/29 05:56:47;;;;;;;8.23;2.35;;;;;;;21.44;47.33;99146.78;4500147;31;34030;-82
2023/06/29 05:59:15;;;;;;;5.00;2.25;;;;;;;21.53;47.20;99141.22;4491665;31;35015;-82
2023/06/29 06:01:43;;;;;;;7.03;2.33;;;;;;;21.58;46.44;99144.56;4483824;32;33407;-83
2023/06/29 06:04:11;;;;;;;5.47;2.60;;;;;;;21.69;46.69;99150.34;4486360;32;33305;-82
2023/06/29 06:06:39;;;;;;;9.05;2.40;;;;;;;21.43;47.51;99145.06;4486037;32;33642;-82
2023/06/29 06:09:06;;;;;;;6.30;2.75;;;;;;;21.39;47.91;99146.94;4492813;31;34029;-83
2023/06/29 06:11:34;;;;;;;7.43;2.37;;;;;;;21.77;46.83;99140.41;4499926;31;33615;-83
2023/06/29 06:14:01;;;;;;;9.15;2.58;;;;;;;21.76;47.29;99149.25;4498340;31;33325;-82
2023/06/29 06:16:29;;;;;;;6.90;2.42;;;;;;;22.13;46.16;99142.72;4497932;31;32464;-82
2023/06/29 06:18:56;;;;;;;9.90;2.72;;;;;;;22.16;46.97;99145.31;4491050;31;34020;-82
2023/06/29 06:21:24;;;;;;;6.55;2.40;;;;;;;21.72;46.71;99141.50;4483553;32;33977;-82
2023/06/29 06:23:53;;;;;;;7.12;2.37;;;;;;;21.91;47.17;99147.03;4483544;32;33436;-82
2023/06/29 06:26:21;;;;;;;7.45;2.50;;;;;;;22.31;45.81;99147.41;4491162;31;33968;-91
2023/06/29 06:28:48;;;;;;;5.45;2.42;;;;;;;22.38;45.72;99152.47;4499550;31;34122;-83
2023/06/29 06:31:16;;;;;;;5.45;2.28;;;;;;;22.79;44.47;99145.66;4499553;31;33929;-83
2023/06/29 06:34:01;;;;;;;4.80;2.30;;;;;;;22.20;45.57;99138.09;4492743;31;33720;-82
2023/06/29 06:36:32;;;;;;;16.98;2.55;;;;;;;22.62;45.72;99140.16;4483453;32;34301;-92
2023/06/29 06:39:00;;;;;;;7.45;2.42;;;;;;;22.62;45.65;99141.03;4483021;32;34710;-82
2023/06/29 06:41:27;;;;;;;11.25;2.67;;;;;;;22.81;45.50;99149.13;4469414;32;33438;-83
2023/06/29 06:43:55;;;;;;;10.85;2.22;;;;;;;22.69;45.75;99137.22;4483520;32;33537;-91
2023/06/29 06:46:23;;;;;;;7.35;2.20;;;;;;;22.35;45.05;99148.16;4484468;32;33121;-88
2023/06/29 06:48:51;;;;;;;6.50;2.45;;;;;;;22.27;45.06;99135.19;4490468;31;33906;-94
2023/06/29 06:51:18;;;;;;;6.15;2.40;;;;;;;22.55;45.24;99139.50;4500563;31;34077;-94
2023/06/29 06:53:47;;;;;;;5.87;2.30;;;;;;;22.47;45.34;99129.22;4498362;31;33120;-83
2023/06/29 06:56:14;;;;;;;7.30;2.70;;;;;;;22.47;46.51;99136.28;4503844;31;34030;-95
2023/06/29 06:58:42;;;;;;;11.68;2.60;;;;;;;22.62;45.28;99130.44;4493227;31;34687;-83
2023/06/29 07:01:09;;;;;;;5.75;2.50;;;;;;;23.07;45.72;99134.94;4483331;32;33716;-84
2023/06/29 07:03:37;;;;;;;6.28;2.55;;;;;;;23.04;43.97;99143.84;4483396;32;32938;-90
2023/06/29 07:06:05;;;;;;;6.22;2.85;;;;;;;22.84;44.93;99146.34;4482253;32;33900;-83
2023/06/29 07:08:34;;;;;;;8.55;2.50;;;;;;;22.54;46.41;99148.34;4489347;31;34278;-95
2023/06/29 07:11:03;;;;;;;6.00;2.40;;;;;;;22.37;46.18;99146.31;4498211;31;35061;-84
2023/06/29 07:13:31;;;;;;;6.07;2.20;;;;;;;22.83;46.22;99145.47;4499864;31;34274;-84
2023/06/29 07:15:59;;;;;;;5.85;2.15;;;;;;;23.38;45.11;99141.69;4498753;31;33693;-91
2023/06/29 07:18:26;;;;;;;7.03;2.40;;;;;;;23.65;44.61;99145.00;4487989;31;33264;-92
2023/06/29 07:20:54;;;;;;;6.68;1.83;;;;;;;23.92;44.45;99143.00;4493643;31;34281;-83
2023/06/29 07:23:24;;;;;;;6.80;2.25;;;;;;;24.24;44.40;99147.81;4499853;31;33579;-82
2023/06/29 07:25:54;;;;;;;5.30;1.80;;;;;;;23.97;43.04;99147.19;4499627;31;33777;-83
2023/06/29 07:28:22;;;;;;;11.02;2.85;;;;;;;23.52;44.29;99148.16;4497391;31;32795;-83
2023/06/29 07:30:51;;;;;;;4.87;1.95;;;;;;;23.88;43.41;99136.97;4498751;31;34713;-88
2023/06/29 07:33:19;;;;;;;6.20;2.00;;;;;;;23.64;44.56;99140.59;4497716;31;32900;-83
2023/06/29 07:35:46;;;;;;;6.20;2.15;;;;;;;23.51;45.28;99137.59;4500752;31;33856;-93
2023/06/29 07:38:15;;;;;;;6.35;2.35;;;;;;;23.64;44.45;99149.44;4497680;31;34806;-95
2023/06/29 07:40:42;;;;;;;4.53;1.85;;;;;;;23.83;43.37;99138.97;4499654;31;34306;-94
2023/06/29 07:43:10;;;;;;;5.47;1.92;;;;;;;23.84;43.50;99145.13;4500108;31;33561;-95
2023/06/29 07:45:38;;;;;;;6.07;2.05;;;;;;;23.18;45.03;99161.81;4500125;31;33988;-81
2023/06/29 07:48:06;;;;;;;6.03;2.40;;;;;;;23.52;43.61;99161.38;4498955;31;34243;-94
2023/06/29 07:50:33;;;;;;;5.90;1.95;;;;;;;23.84;43.27;99153.94;4497572;31;33729;-96
2023/06/29 07:53:01;;;;;;;6.95;2.40;;;;;;;24.19;44.04;99148.91;4499095;31;34180;-93
2023/06/29 07:55:29;;;;;;;7.43;2.40;;;;;;;23.95;43.40;99148.19;4498738;31;34483;-83
2023/06/29 07:57:56;;;;;;;5.12;1.95;;;;;;;24.44;42.73;99148.75;4500084;31;35057;-93
2023/06/29 08:00:27;;;;;;;5.25;2.05;;;;;;;23.89;44.10;99141.34;4500470;31;33676;-93
2023/06/29 08:02:54;;;;;;;5.43;2.37;;;;;;;23.87;44.03;99145.88;4500003;31;34286;-83
2023/06/29 08:05:23;;;;;;;6.97;2.05;;;;;;;23.45;44.02;99153.72;4499422;31;33780;-95
2023/06/29 08:07:53;;;;;;;5.03;1.95;;;;;;;23.74;43.88;99149.94;4497255;31;32777;-95
2023/06/29 08:10:22;;;;;;;6.05;1.95;;;;;;;23.90;44.58;99140.41;4498350;31;33580;-83
2023/06/29 08:12:49;;;;;;;4.87;1.98;;;;;;;24.52;42.71;99150.13;4498515;31;33476;-92
2023/06/29 08:15:17;;;;;;;5.05;2.00;;;;;;;24.07;43.70;99147.66;4498837;31;34666;-83
2023/06/29 08:17:45;;;;;;;8.48;2.37;;;;;;;24.81;42.21;99152.38;4499918;31;35157;-94
2023/06/29 08:20:13;;;;;;;4.87;2.20;;;;;;;24.08;44.09;99149.38;4498208;31;34145;-91
2023/06/29 08:22:45;;;;;;;6.07;2.40;;;;;;;24.44;42.02;99152.25;4498367;31;33568;-93
2023/06/29 08:25:12;;;;;;;4.22;2.00;;;;;;;24.46;42.78;99161.00;4496883;31;34088;-91
2023/06/29 08:27:41;;;;;;;7.32;2.08;;;;;;;24.57;42.07;99157.88;4498398;31;35221;-92
2023/06/29 08:30:09;;;;;;;5.15;2.00;;;;;;;24.20;44.10;99164.72;4498260;31;34916;-83
2023/06/29 08:32:37;;;;;;;6.82;2.20;;;;;;;24.41;43.53;99159.50;4497196;31;34353;-86
2023/06/29 08:35:05;;;;;;;3.78;1.75;;;;;;;24.49;42.85;99160.00;4500080;31;34637;-91
2023/06/29 08:37:32;;;;;;;6.37;2.30;;;;;;;24.30;42.68;99161.72;4501290;31;33595;-92
2023/06/29 08:40:00;;;;;;;10.85;2.28;;;;;;;24.49;42.51;99165.31;4498641;31;33812;-83
2023/06/29 08:42:28;;;;;;;6.35;2.10;;;;;;;24.58;42.92;99154.28;4485760;31;32807;-91
2023/06/29 08:44:55;;;;;;;5.95;2.12;;;;;;;24.38;43.30;99151.62;4499014;31;33631;-93
2023/06/29 08:47:24;;;;;;;8.45;2.05;;;;;;;24.52;42.88;99157.22;4485525;31;33255;-90
2023/06/29 08:49:56;;;;;;;5.60;2.10;;;;;;;24.80;42.46;99148.88;4485511;31;33958;-88
2023/06/29 08:52:26;;;;;;;3.55;1.92;;;;;;;24.26;43.19;99148.59;4498995;31;33328;-84
2023/06/29 08:54:53;;;;;;;7.28;2.30;;;;;;;24.79;42.77;99151.62;4499840;31;33725;-93
2023/06/29 08:57:21;;;;;;;7.75;2.60;;;;;;;24.79;42.45;99146.31;4499092;31;34218;-92
2023/06/29 08:59:50;;;;;;;8.05;2.47;;;;;;;24.85;43.22;99144.25;4498585;31;33993;-84
2023/06/29 09:02:17;;;;;;;5.75;2.12;;;;;;;25.35;43.19;99140.19;4499743;31;32928;-82
2023/06/29 09:04:45;;;;;;;6.20;1.90;;;;;;;25.12;43.12;99152.75;4501028;31;33078;-93
2023/06/29 09:07:15;;;;;;;6.47;2.30;;;;;;;24.74;41.42;99144.72;4498588;31;34778;-92
2023/06/29 09:09:43;;;;;;;5.70;2.00;;;;;;;25.00;42.79;99150.59;4499634;31;34168;-89
2023/06/29 09:12:10;;;;;;;5.37;2.25;;;;;;;25.03;43.06;99142.50;4486076;31;33249;-92
2023/06/29 09:14:43;;;;;;;9.15;2.25;;;;;;;25.52;42.39;99149.97;4499614;31;33820;-94
2023/06/29 09:17:16;;;;;;;4.72;1.62;;;;;;;25.59;42.38;99146.94;4486325;31;33812;-95
2023/06/29 09:19:54;;;;;;;6.03;2.10;;;;;;;25.20;42.09;99145.28;4499194;31;34701;-93
2023/06/29 09:22:22;;;;;;;5.55;1.37;;;;;;;25.54;41.29;99138.34;4500209;31;33421;-83
2023/06/29 09:24:55;;;;;;;5.43;2.30;;;;;;;25.63;42.06;99145.84;4500444;31;34161;-96
2023/06/29 09:27:36;;;;;;;4.57;1.50;;;;;;;25.90;40.29;99135.66;4500995;31;33954;-93
2023/06/29 09:30:06;;;;;;;7.32;2.20;;;;;;;25.08;42.20;99145.81;4501310;31;33629;-84
2023/06/29 09:32:39;;;;;;;5.55;2.20;;;;;;;25.61;41.65;99142.41;4501242;31;33317;-83
2023/06/29 09:35:08;;;;;;;4.07;2.35;;;;;;;25.74;41.68;99142.66;4499679;31;33582;-92
2023/06/29 09:37:36;;;;;;;3.85;2.10;;;;;;;26.05;41.74;99131.38;4498439;31;34529;-96
2023/06/29 09:40:09;;;;;;;4.72;2.00;;;;;;;25.88;41.42;99134.06;4499247;31;33786;-93
2023/06/29 09:42:38;;;;;;;5.15;2.10;;;;;;;26.48;42.33;99136.28;4498813;31;33481;-83
2023/06/29 09:45:14;;;;;;;6.15;2.10;;;;;;;26.64;41.21;99139.87;4502334;31;34623;-94
2023/06/29 09:47:50;;;;;;;4.32;2.17;;;;;;;25.80;42.18;99141.53;4500156;31;34953;-90
2023/06/29 09:50:22;;;;;;;7.72;2.30;;;;;;;25.61;41.41;99136.22;4500216;31;34350;-93
2023/06/29 09:52:54;;;;;;;5.57;1.87;;;;;;;25.50;42.47;99143.88;4498385;31;32994;-90
2023/06/29 09:55:29;;;;;;;4.65;2.15;;;;;;;26.06;43.63;99133.09;4498721;31;33901;-93
2023/06/29 09:57:57;;;;;;;;;;;;;;;26.26;40.88;99136.53;4486208;31;33877;-92
2023/06/29 10:00:27;;;;;;;4.68;1.90;;;;;;;26.14;39.79;99135.38;4500482;31;34566;-94
2023/06/29 10:02:55;;;;;;;4.30;1.40;;;;;;;24.68;42.72;99145.00;4486068;31;33549;-90
2023/06/29 10:05:23;;;;;;;5.07;2.25;;;;;;;24.93;42.33;99143.88;4499666;31;33795;-92
2023/06/29 10:07:53;;;;;;;4.03;1.60;;;;;;;25.26;41.07;99136.16;4498156;31;34186;-83
2023/06/29 10:10:23;;;;;;;4.07;1.62;;;;;;;25.55;42.70;99137.41;4498528;31;33747;-83
2023/06/29 10:12:54;;;;;;;4.07;1.77;;;;;;;25.93;40.11;99137.31;4498165;31;33635;-82
2023/06/29 10:15:25;;;;;;;3.47;1.67;;;;;;;26.17;40.59;99138.72;4499345;31;34997;-94
2023/06/29 10:18:03;;;;;;;4.15;1.83;;;;;;;26.45;39.32;99131.97;4499482;31;33839;-83
2023/06/29 10:20:33;;;;;;;4.90;1.98;;;;;;;26.27;39.61;99138.25;4500113;31;33424;-85
2023/06/29 10:23:03;;;;;;;3.53;1.62;;;;;;;26.39;38.63;99132.28;4485030;31;32635;-94
2023/06/29 10:25:33;;;;;;;4.37;1.67;;;;;;;26.66;41.59;99128.19;4498197;31;34121;-94
2023/06/29 10:28:01;;;;;;;6.15;2.10;;;;;;;27.03;40.62;99135.97;4499563;31;34243;-96
2023/06/29 10:30:29;;;;;;;4.62;1.65;;;;;;;26.19;39.98;99120.91;4500501;31;34263;-95
2023/06/29 10:32:57;;;;;;;4.85;1.60;;;;;;;26.76;39.07;99122.38;4499547;31;33257;-93
2023/06/29 10:35:25;;;;;;;4.00;1.90;;;;;;;26.95;40.75;99123.09;4499227;31;33236;-92
2023/06/29 10:37:57;;;;;;;6.90;1.60;;;;;;;26.77;38.19;99124.97;4499741;31;34065;-94
2023/06/29 10:40:26;;;;;;;5.87;1.58;;;;;;;26.12;39.16;99131.94;4498143;31;34073;-92
2023/06/29 10:42:54;;;;;;;5.47;2.00;;;;;;;25.92;40.06;99119.69;4499167;31;33921;-94
2023/06/29 10:45:22;;;;;;;5.95;2.03;;;;;;;26.25;40.39;99121.50;4497961;31;33064;-94
2023/06/29 10:47:55;;;;;;;3.60;1.77;;;;;;;26.85;38.61;99113.91;4499638;31;34957;-93
2023/06/29 10:50:25;;;;;;;3.03;1.40;;;;;;;26.78;38.02;99120.50;4498766;31;34117;-83
2023/06/29 10:52:58;;;;;;;4.03;1.83;;;;;;;27.09;37.86;99119.69;4500151;31;33845;-94
2023/06/29 10:55:28;;;;;;;6.80;1.87;;;;;;;27.02;37.22;99113.84;4497416;31;33570;-94
2023/06/29 10:58:01;;;;;;;4.37;2.10;;;;;;;26.98;38.49;99117.63;4484983;31;34036;-95
2023/06/29 11:00:28;;;;;;;4.37;1.80;;;;;;;26.89;37.58;99118.09;4497990;31;33878;-88
2023/06/29 11:02:59;;;;;;;3.70;1.62;;;;;;;26.76;38.09;99122.38;4498458;31;32516;-84
2023/06/29 11:05:28;;;;;;;4.90;1.92;;;;;;;26.35;40.18;99123.63;4499557;31;34023;-96
2023/06/29 11:07:56;;;;;;;3.83;1.48;;;;;;;26.40;39.67;99115.41;4497930;31;32665;-95
2023/06/29 11:10:23;;;;;;;5.03;1.83;;;;;;;26.63;38.58;99117.75;4498338;31;34069;-91
2023/06/29 11:12:54;;;;;;;3.95;1.90;;;;;;;26.62;37.47;99118.66;4502089;31;33685;-95
2023/06/29 11:15:22;;;;;;;6.82;1.67;;;;;;;26.15;39.37;99116.69;4499931;31;34827;-83
2023/06/29 11:17:51;;;;;;;5.80;1.77;;;;;;;26.63;40.58;99112.44;4498749;31;33800;-93
2023/06/29 11:20:20;;;;;;;6.90;1.83;;;;;;;26.71;39.04;99108.47;4500346;31;33898;-83
2023/06/29 11:22:51;;;;;;;7.12;2.00;;;;;;;26.73;38.49;99117.22;4500736;31;34236;-95
2023/06/29 11:25:19;;;;;;;5.37;1.77;;;;;;;26.93;37.60;99115.22;4499467;31;34612;-94
2023/06/29 11:27:46;;;;;;;3.58;1.60;;;;;;;26.99;38.43;99110.50;4501621;31;34110;-89
2023/06/29 11:30:14;;;;;;;6.05;2.00;;;;;;;26.22;39.09;99111.06;4504866;31;34070;-96
2023/06/29 11:32:42;;;;;;;5.05;2.00;;;;;;;25.77;39.57;99102.69;4499176;31;33449;-94
2023/06/29 11:35:10;;;;;;;5.55;1.70;;;;;;;26.08;38.77;99107.31;4497836;31;33690;-93
2023/06/29 11:37:38;;;;;;;5.05;1.90;;;;;;;26.13;39.51;99115.03;4499253;31;35001;-94
2023/06/29 11:40:22;;;;;;;4.87;1.65;;;;;;;26.05;41.91;99103.97;4497869;31;33953;-94